Sunday, November 19, 2017, 5:23 AM EST
Back to Local

KGTB, Fort Drum / Wheeler-sack U. S. Army Airfield

Location: Fort Drum, NY, United States Lat: 44.05
Local Time: 5:23 AM EST (10:23 GMT) Lon: -75.733
Time Zone: US/Eastern Elev: 679 ft

Show me the last for .
Show Decoded

2017-11-19 04:56 METAR KGTB 190956Z 36013KT 3SM RA SCT002 BKN005 OVC010 02/02 A2904 RMK AO2A
                 SLP838 P0022 T00220015 CHINO RWY03 =
2017-11-19 04:36 METAR KGTB 190936Z 36011KT 3SM RA SCT001 BKN003 OVC010 04/03 A2903 RMK AO2A
                 SLP835 CHINO RWY03 =
2017-11-19 04:21 METAR KGTB 190921Z 36007KT 2 3/4SM RA BR FEW001 SCT003 OVC010 06/06 A2903 RMK
                 AO2A VIS 2 1/4V2 3/4 SLP834 CHINO RWY03 $ =
2017-11-19 04:16 METAR KGTB 190916Z 01005KT 2 1/4SM +RA BR SCT001 BKN003 OVC008 06/06 A2903 RMK
                 AO2A VIS 2 1/4V3 CIG 001V003 SLP834 CHINO RWY03 $ =
2017-11-19 04:11 METAR KGTB 190911Z AUTO 35004KT 2 1/2SM +RA BR BKN003 BKN010 OVC015 06/06 A2903
                 RMK AO2 VIS 2 1/2V3 CIG 003V011 SLP834 CHINO RWY03 $ =
2017-11-19 04:06 METAR KGTB 190906Z AUTO 33004KT 3SM RA BR BKN003 BKN010 OVC015 07/06 A2903 RMK
                 AO2 CIG 003V011 SLP834 CHINO RWY03 $ =
2017-11-19 04:01 METAR KGTB 190901Z AUTO 07003KT 2 3/4SM RA BR SCT002 OVC011 06/06 A2903 RMK AO2
                 CIG 009V015 OVC V BKN SLP834 CHINO RWY03 $ =
2017-11-19 03:56 METAR KGTB 190856Z AUTO 09003KT 2 1/2SM +RA BR SCT002 OVC013 07/06 A2902 RMK AO2
                 CIG 009V015 SLP831 P0025 60033 T00650059 55020 CHINO RWY03 $ =
2017-11-19 03:51 METAR KGTB 190851Z AUTO 00000KT 2 3/4SM +RA BR SCT002 SCT009 OVC015 07/06 A2902
                 RMK AO2 VIS 2 1/4V2 3/4 OVC V BKN SLP831 CHINO RWY03 $ =
2017-11-19 03:46 METAR KGTB 190846Z AUTO 33005KT 2 1/2SM +RA BR SCT002 BKN015 OVC020 07/06 A2902
                 RMK AO2 VIS 2V2 1/2 CIG 011V015 BKN V OVC SLP831 CHINO RWY03 $ =
2017-11-19 03:41 METAR KGTB 190841Z AUTO 00000KT 2SM +RA BR SCT002 BKN013 OVC018 07/06 A2903 RMK
                 AO2 VIS 2V3 CIG 011V018 SLP834 CHINO RWY03 $ =
2017-11-19 03:36 METAR KGTB 190836Z AUTO 00000KT 2 3/4SM +RA BR SCT002 SCT009 OVC018 07/06 A2903
                 RMK AO2 VIS 2 3/4V4 SLP834 CHINO RWY03 $ =
2017-11-19 03:16 METAR KGTB 190816Z AUTO 18005KT 7SM RA FEW003 BKN016 OVC022 07/06 A2902 RMK AO2
                 CIG 016V027 BKN V SCT SLP831 CHINO RWY03 $ =
2017-11-19 02:56 METAR KGTB 190756Z AUTO 15009KT 5SM RA BR FEW003 BKN023 OVC029 06/05 A2902 RMK
                 AO2 RAB18 CIG 023V028 SLP831 P0007 T00640053 CHINO RWY03 $ =
2017-11-19 02:51 METAR KGTB 190751Z AUTO 15011KT 7SM +RA FEW003 OVC027 06/05 A2903 RMK AO2 RAB18
                 SLP834 CHINO RWY03 $ =
2017-11-19 02:33 METAR KGTB 190733Z AUTO 15008KT 10SM -RA SCT023 BKN028 OVC036 06/05 A2903 RMK
                 AO2 RAB18 PRESFR SLP834 CHINO RWY03 $ =
2017-11-19 02:18 METAR KGTB 190718Z AUTO 15011KT 10SM -RA FEW025 BKN038 OVC046 06/05 A2905 RMK
                 AO2 RAB18 SLP841 CHINO RWY03 $ =
2017-11-19 01:56 METAR KGTB 190656Z AUTO 15014KT 10SM SCT040 OVC050 06/05 A2904 RMK AO2
                 RAE05DZB05E06RAB06E16DZB16E18 SLP838 P0001 T00590045 CHINO RWY03 $ =
2017-11-19 01:18 METAR KGTB 190618Z AUTO 15014KT 10SM OVC036 06/04 A2907 RMK AO2
                 RAE05DZB05E06RAB06E16DZB16E18 SLP848 CHINO RWY03 $ =
2017-11-19 00:56 METAR KGTB 190556Z AUTO 16013KT 9SM R21/4000FT -RA FEW003 FEW014 OVC030 06/04
                 A2908 RMK AO2 RAB25 SLP851 P0002 60013 T00550043 10055 20031 57047 CHINO RWY03 $
                 =
2017-11-19 00:46 METAR KGTB 190546Z AUTO 15013KT 6SM R21/3500FT -RA BR FEW003 FEW017 OVC028 05/04
                 A2908 RMK AO2 RAB25 SLP851 CHINO RWY03 $ =
2017-11-19 00:36 METAR KGTB 190536Z AUTO 15013KT 6SM R21/4000FT -RA BR FEW003 OVC030 05/04 A2909
                 RMK AO2 RAB25 SLP855 CHINO RWY03 $ =
2017-11-19 00:25 METAR KGTB 190525Z AUTO 14012KT 10SM R21/4500FT -RA FEW018 OVC032 05/04 A2909
                 RMK AO2 RAB25 PRESFR SLP855 CHINO RWY03 $ =
2017-11-19 00:00 METAR KGTB 190500Z AUTO 13010KT 10SM R21/4500FT FEW008 OVC031 05/03 A2912 RMK
                 AO2 SLP866 CHINO RWY03 $ =
2017-11-18 23:56 METAR KGTB 190456Z AUTO 13012KT 10SM R21/4500FT OVC031 05/04 A2912 RMK AO2
                 RAB15E24DZB24E25 SLP866 P0000 T00490036 400531038 CHINO RWY03 $ =
2017-11-18 23:36 METAR KGTB 190436Z AUTO 12012KT 10SM R21/4500FT FEW015 OVC031 05/03 A2914 RMK
                 AO2 RAB15E24DZB24E25 SLP872 CHINO RWY03 $ =
2017-11-18 23:26 METAR KGTB 190426Z AUTO 14011G15KT 10SM R21/4500FT FEW015 OVC027 05/04 A2915 RMK
                 AO2 RAB15E24DZB24E25 CIG 025V030 SLP876 CHINO RWY03 $ =
2017-11-18 23:25 METAR KGTB 190425Z AUTO 13008KT 10SM R21/4500FT -DZ FEW015 OVC027 05/04 A2915
                 RMK AO2 RAB15E24DZB24E25 CIG 025V030 SLP876 CHINO RWY03 $ =
2017-11-18 23:20 METAR KGTB 190420Z AUTO 14007KT 10SM R21/4500FT -RA FEW010 FEW015 SCT025 OVC030
                 05/04 A2916 RMK AO2 RAB15 SLP879 CHINO RWY03 $ =
2017-11-18 23:15 METAR KGTB 190415Z AUTO 14011KT 10SM R21/4500FT -RA FEW010 FEW015 BKN025 OVC030
                 05/04 A2916 RMK AO2 RAB15 CIG 025V030 SLP879 CHINO RWY03 $ =
2017-11-18 23:11 METAR KGTB 190411Z AUTO 14012KT 10SM R21/4500FT FEW016 SCT022 OVC030 05/04 A2916
                 RMK AO2 SLP879 CHINO RWY03 $ =
2017-11-18 23:06 METAR KGTB 190406Z AUTO 15013KT 10SM R21/4500FT OVC028 05/03 A2917 RMK AO2
                 SLP883 CHINO RWY03 $ =
2017-11-18 22:56 METAR KGTB 190356Z AUTO 15013KT 10SM R21/4500FT FEW019 OVC030 05/03 A2917 RMK
                 AO2 SLP883 T00460033 CHINO RWY03 $ =
2017-11-18 22:47 METAR KGTB 190347Z AUTO 15011KT 10SM R21/4500FT FEW019 SCT024 OVC030 05/03 A2918
                 RMK AO2 SLP886 CHINO RWY03 $ =
2017-11-18 22:32 METAR KGTB 190332Z AUTO 14010G18KT 10SM R21/4500FT FEW008 OVC020 04/03 A2918 RMK
                 AO2 SLP887 CHINO RWY03 $ =
2017-11-18 22:31 METAR KGTB 190331Z AUTO 14011G18KT 10SM R21/4500FT OVC020 04/03 A2918 RMK AO2
                 PRESFR SLP887 CHINO RWY03 $ =
2017-11-18 22:01 METAR KGTB 190301Z AUTO 15011KT 10SM R21/4500FT BKN019 OVC026 04/03 A2923 RMK
                 AO2 CIG 019V026 BKN V SCT SLP904 CHINO RWY03 $ =
2017-11-18 21:56 METAR KGTB 190256Z AUTO 15010KT 10SM R21/4500FT SCT019 OVC026 04/03 A2923 RMK
                 AO2 RAB11E28 SLP904 P0001 60011 T00400028 57044 CHINO RWY03 $ =
2017-11-18 21:28 METAR KGTB 190228Z AUTO 14013KT 10SM R21/4500FT OVC024 04/03 A2924 RMK AO2
                 RAB11E28 PRESFR SLP907 CHINO RWY03 $ =
2017-11-18 21:11 METAR KGTB 190211Z AUTO 15012KT 10SM R21/4500FT -RA OVC024 04/02 A2926 RMK AO2
                 RAB11 SLP914 CHINO RWY03 $ =
2017-11-18 20:56 METAR KGTB 190156Z AUTO 14013KT 10SM R21/4500FT OVC023 04/02 A2926 RMK AO2
                 RAE19DZB19E33 SLP914 P0000 T00350022 CHINO RWY03 $ =
2017-11-18 20:33 METAR KGTB 190133Z AUTO 14013KT 10SM R21/4500FT OVC022 03/02 A2928 RMK AO2
                 RAE19DZB19E33 PRESFR SLP921 CHINO RWY03 $ =
2017-11-18 19:56 METAR KGTB 190056Z AUTO 14015KT 10SM R21/4500FT -RA OVC022 03/02 A2932 RMK AO2
                 RAE22UPB22E46RAB46 OVC V BKN SLP935 P0010 T00310018 CHINO RWY03 $ =
2017-11-18 19:16 METAR KGTB 190016Z AUTO 15013G19KT 8SM R21/4000FT -RA OVC029 03/02 A2936 RMK AO2
                 SLP948 CHINO RWY03 $ =
2017-11-18 19:06 METAR KGTB 190006Z AUTO 14012KT 10SM R21/4000FT -RA BKN030 OVC037 03/01 A2936
                 RMK AO2 SLP948 CHINO RWY03 $ =
2017-11-18 19:01 METAR KGTB 190001Z AUTO 15010KT 10SM R21/5500FT -RA BKN032 OVC039 03/01 A2936
                 RMK AO2 SLP949 CHINO RWY03 $ =
2017-11-18 18:56 METAR KGTB 182356Z AUTO 14010KT 10SM -RA OVC034 03/01 A2937 RMK AO2
                 DZB10E11RAB11 SLP952 P0002 60002 T00340014 10053 20034 57021 CHINO RWY03 $ =
2017-11-18 18:35 METAR KGTB 182335Z AUTO 14011KT 10SM -RA SCT020 OVC036 04/01 A2937 RMK AO2
                 DZB10E11RAB11 SLP952 $ =
2017-11-18 18:10 METAR KGTB 182310Z AUTO 14011KT 10SM -DZ OVC021 05/M01 A2939 RMK AO2 DZB10
                 PRESFR SLP959 $ =
2017-11-18 17:56 METAR KGTB 182256Z AUTO 14013KT 10SM BKN021 OVC028 05/M01 A2941 RMK AO2 SLP965
                 T00471013 $ =
2017-11-18 16:56 METAR KGTB 182156Z AUTO 14011KT 10SM OVC021 05/M02 A2941 RMK AO2 SLP965
                 T00491016 $ =
2017-11-18 15:56 METAR KGTB 182056Z AUTO 14010KT 10SM OVC022 05/M02 A2944 RMK AO2 SLP976
                 T00521017 57028 $ =
2017-11-18 14:56 METAR KGTB 181956Z AUTO 15008KT 10SM OVC026 05/M02 A2946 RMK AO2 SLP983
                 T00531023 $ =
2017-11-18 13:56 METAR KGTB 181856Z AUTO 15008KT 10SM OVC028 05/M04 A2950 RMK AO2 SLP997
                 T00481037 $ =
2017-11-18 12:56 METAR KGTB 181756Z AUTO 15011KT 10SM OVC033 04/M04 A2952 RMK AO2 SLP004 60000
                 T00421043 10042 21001 58033 $ =
2017-11-18 11:56 METAR KGTB 181656Z AUTO 15013KT 10SM SCT045 BKN055 04/M04 A2955 RMK AO2 PRESFR
                 SLP014 T00371043 $ =
2017-11-18 10:56 METAR KGTB 181556Z AUTO 14011KT 10SM SCT065 02/M04 A2962 RMK AO2
                 DZB1456E05RAB05E30DZB30E39 SLP038 P0000 T00241044 $ =
2017-11-18 10:39 METAR KGTB 181539Z AUTO 15011KT 10SM FEW036 BKN065 02/M05 A2962 RMK AO2
                 DZB1456E05RAB05E30DZB30E39 SLP038 $ =
2017-11-18 09:57 METAR KGTB 181457Z AUTO 15015KT 10SM -DZ FEW055 03/M06 A2962 RMK AO2 DZB56
                 SLP038 $ =
2017-11-18 09:56 METAR KGTB 181456Z AUTO 15014KT 10SM FEW060 03/M06 A2962 RMK AO2 SLP038
                 T00261063 58022 $ =
2017-11-18 08:56 METAR KGTB 181356Z AUTO 15013KT 10SM FEW100 FEW110 01/M07 A2966 RMK AO2 SLP052
                 T00131075 $ =
2017-11-18 07:56 METAR KGTB 181256Z AUTO 14012KT 10SM CLR 01/M08 A2969 RMK AO2 SLP062 T00051080 $
                 =
2017-11-18 06:56 METAR KGTB 181156Z AUTO 15014KT 10SM SCT120 BKN160 00/M08 A2968 RMK AO2 SLP059
                 T10021077 11002 21038 57044 $ =
2017-11-18 05:56 METAR KGTB 181056Z AUTO 15016KT 10SM FEW120 M01/M09 A2972 RMK AO2 PK WND
                 14026/15 SLP073 T10101087 $ =

Support USWX by starting your Amazon purchase here.